sensor_id;sensor_type;location;lat;lon;timestamp;P1;P2;P0
48155;PMS5003;35568;48.104;11.782;2022-11-25T00:00:47;4;4;
48155;PMS5003;35568;48.104;11.782;2022-11-25T00:03:14;3;3;
48155;PMS5003;35568;48.104;11.782;2022-11-25T00:05:41;3;3;
48155;PMS5003;35568;48.104;11.782;2022-11-25T00:08:08;4;4;
48155;PMS5003;35568;48.104;11.782;2022-11-25T00:10:35;5;5;
48155;PMS5003;35568;48.104;11.782;2022-11-25T00:13:02;4;4;
48155;PMS5003;35568;48.104;11.782;2022-11-25T00:15:28;4;4;
48155;PMS5003;35568;48.104;11.782;2022-11-25T00:17:55;5;4;
48155;PMS5003;35568;48.104;11.782;2022-11-25T00:20:22;6;6;
48155;PMS5003;35568;48.104;11.782;2022-11-25T00:22:49;5;5;
48155;PMS5003;35568;48.104;11.782;2022-11-25T00:25:16;5;5;
48155;PMS5003;35568;48.104;11.782;2022-11-25T00:27:43;5;5;
48155;PMS5003;35568;48.104;11.782;2022-11-25T00:30:10;7;7;
48155;PMS5003;35568;48.104;11.782;2022-11-25T00:32:38;8;8;
48155;PMS5003;35568;48.104;11.782;2022-11-25T00:35:04;7;7;
48155;PMS5003;35568;48.104;11.782;2022-11-25T00:37:32;4;4;
48155;PMS5003;35568;48.104;11.782;2022-11-25T00:39:59;5;5;
48155;PMS5003;35568;48.104;11.782;2022-11-25T00:42:26;5;4;
48155;PMS5003;35568;48.104;11.782;2022-11-25T00:44:53;4;4;
48155;PMS5003;35568;48.104;11.782;2022-11-25T00:47:20;3;3;
48155;PMS5003;35568;48.104;11.782;2022-11-25T00:49:48;3;3;
48155;PMS5003;35568;48.104;11.782;2022-11-25T00:52:17;3;3;
48155;PMS5003;35568;48.104;11.782;2022-11-25T00:54:46;4;3;
48155;PMS5003;35568;48.104;11.782;2022-11-25T00:57:14;7;7;
48155;PMS5003;35568;48.104;11.782;2022-11-25T00:59:42;14;14;
48155;PMS5003;35568;48.104;11.782;2022-11-25T01:02:10;14;14;
48155;PMS5003;35568;48.104;11.782;2022-11-25T01:04:39;21;17;
48155;PMS5003;35568;48.104;11.782;2022-11-25T01:07:05;24;23;
48155;PMS5003;35568;48.104;11.782;2022-11-25T01:09:33;10;10;
48155;PMS5003;35568;48.104;11.782;2022-11-25T01:12:00;11;11;
48155;PMS5003;35568;48.104;11.782;2022-11-25T01:14:27;13;11;
48155;PMS5003;35568;48.104;11.782;2022-11-25T01:16:54;6;6;
48155;PMS5003;35568;48.104;11.782;2022-11-25T01:19:21;7;7;
48155;PMS5003;35568;48.104;11.782;2022-11-25T01:21:49;5;5;
48155;PMS5003;35568;48.104;11.782;2022-11-25T01:24:17;5;5;
48155;PMS5003;35568;48.104;11.782;2022-11-25T01:26:44;2;2;
48155;PMS5003;35568;48.104;11.782;2022-11-25T01:29:13;3;3;
48155;PMS5003;35568;48.104;11.782;2022-11-25T01:31:42;3;3;
48155;PMS5003;35568;48.104;11.782;2022-11-25T01:34:11;4;3;
48155;PMS5003;35568;48.104;11.782;2022-11-25T01:36:40;2;2;
48155;PMS5003;35568;48.104;11.782;2022-11-25T01:39:10;3;3;
48155;PMS5003;35568;48.104;11.782;2022-11-25T01:41:41;3;3;
48155;PMS5003;35568;48.104;11.782;2022-11-25T01:44:10;2;2;
48155;PMS5003;35568;48.104;11.782;2022-11-25T01:46:42;3;2;
48155;PMS5003;35568;48.104;11.782;2022-11-25T01:49:14;2;2;
48155;PMS5003;35568;48.104;11.782;2022-11-25T01:51:46;2;2;
48155;PMS5003;35568;48.104;11.782;2022-11-25T01:54:17;2;2;
48155;PMS5003;35568;48.104;11.782;2022-11-25T01:56:48;2;2;
48155;PMS5003;35568;48.104;11.782;2022-11-25T01:59:19;3;3;
48155;PMS5003;35568;48.104;11.782;2022-11-25T02:01:47;2;2;
48155;PMS5003;35568;48.104;11.782;2022-11-25T02:04:15;2;2;
48155;PMS5003;35568;48.104;11.782;2022-11-25T02:06:46;2;2;
48155;PMS5003;35568;48.104;11.782;2022-11-25T02:09:17;2;2;
48155;PMS5003;35568;48.104;11.782;2022-11-25T02:11:47;4;3;
48155;PMS5003;35568;48.104;11.782;2022-11-25T02:14:16;2;2;
48155;PMS5003;35568;48.104;11.782;2022-11-25T02:16:45;3;3;
48155;PMS5003;35568;48.104;11.782;2022-11-25T02:19:13;2;2;
48155;PMS5003;35568;48.104;11.782;2022-11-25T02:21:49;3;3;
48155;PMS5003;35568;48.104;11.782;2022-11-25T02:24:21;3;3;
48155;PMS5003;35568;48.104;11.782;2022-11-25T02:26:55;5;4;
48155;PMS5003;35568;48.104;11.782;2022-11-25T02:29:22;5;5;
48155;PMS5003;35568;48.104;11.782;2022-11-25T02:31:50;3;3;
48155;PMS5003;35568;48.104;11.782;2022-11-25T02:34:17;3;3;
48155;PMS5003;35568;48.104;11.782;2022-11-25T02:36:44;1;1;
48155;PMS5003;35568;48.104;11.782;2022-11-25T02:39:11;1;1;
48155;PMS5003;35568;48.104;11.782;2022-11-25T02:41:39;2;2;
48155;PMS5003;35568;48.104;11.782;2022-11-25T02:44:09;2;2;
48155;PMS5003;35568;48.104;11.782;2022-11-25T02:46:36;1;1;
48155;PMS5003;35568;48.104;11.782;2022-11-25T02:49:03;1;1;
48155;PMS5003;35568;48.104;11.782;2022-11-25T02:51:31;3;3;
48155;PMS5003;35568;48.104;11.782;2022-11-25T02:53:59;3;3;
48155;PMS5003;35568;48.104;11.782;2022-11-25T02:56:28;2;2;
48155;PMS5003;35568;48.104;11.782;2022-11-25T02:58:56;2;2;
48155;PMS5003;35568;48.104;11.782;2022-11-25T03:01:24;2;2;
48155;PMS5003;35568;48.104;11.782;2022-11-25T03:03:52;3;3;
48155;PMS5003;35568;48.104;11.782;2022-11-25T03:06:19;2;2;
48155;PMS5003;35568;48.104;11.782;2022-11-25T03:08:46;3;3;
48155;PMS5003;35568;48.104;11.782;2022-11-25T03:11:13;5;5;
48155;PMS5003;35568;48.104;11.782;2022-11-25T03:13:40;4;3;
48155;PMS5003;35568;48.104;11.782;2022-11-25T03:16:06;2;2;
48155;PMS5003;35568;48.104;11.782;2022-11-25T03:18:33;3;2;
48155;PMS5003;35568;48.104;11.782;2022-11-25T03:21:00;2;2;
48155;PMS5003;35568;48.104;11.782;2022-11-25T03:23:27;2;2;
48155;PMS5003;35568;48.104;11.782;2022-11-25T03:25:54;3;2;
48155;PMS5003;35568;48.104;11.782;2022-11-25T03:28:21;3;3;
48155;PMS5003;35568;48.104;11.782;2022-11-25T03:30:48;2;2;
48155;PMS5003;35568;48.104;11.782;2022-11-25T03:33:15;3;3;
48155;PMS5003;35568;48.104;11.782;2022-11-25T03:35:42;4;3;
48155;PMS5003;35568;48.104;11.782;2022-11-25T03:38:09;3;3;
48155;PMS5003;35568;48.104;11.782;2022-11-25T03:40:35;2;2;
48155;PMS5003;35568;48.104;11.782;2022-11-25T03:43:03;2;2;
48155;PMS5003;35568;48.104;11.782;2022-11-25T03:45:30;2;2;
48155;PMS5003;35568;48.104;11.782;2022-11-25T03:47:57;3;3;
48155;PMS5003;35568;48.104;11.782;2022-11-25T03:50:24;3;3;
48155;PMS5003;35568;48.104;11.782;2022-11-25T03:52:51;5;4;
48155;PMS5003;35568;48.104;11.782;2022-11-25T03:55:18;1;1;
48155;PMS5003;35568;48.104;11.782;2022-11-25T03:57:45;2;2;
48155;PMS5003;35568;48.104;11.782;2022-11-25T04:03:02;3;3;
48155;PMS5003;35568;48.104;11.782;2022-11-25T04:05:29;1;1;
48155;PMS5003;35568;48.104;11.782;2022-11-25T04:07:56;2;2;
48155;PMS5003;35568;48.104;11.782;2022-11-25T04:10:22;3;3;
48155;PMS5003;35568;48.104;11.782;2022-11-25T04:12:49;2;2;
48155;PMS5003;35568;48.104;11.782;2022-11-25T04:15:16;2;2;
48155;PMS5003;35568;48.104;11.782;2022-11-25T04:17:44;3;3;
48155;PMS5003;35568;48.104;11.782;2022-11-25T04:20:11;1;1;
48155;PMS5003;35568;48.104;11.782;2022-11-25T04:22:39;1;1;
48155;PMS5003;35568;48.104;11.782;2022-11-25T04:25:07;3;3;
48155;PMS5003;35568;48.104;11.782;2022-11-25T04:27:34;2;2;
48155;PMS5003;35568;48.104;11.782;2022-11-25T04:30:01;1;1;
48155;PMS5003;35568;48.104;11.782;2022-11-25T04:32:28;1;1;
48155;PMS5003;35568;48.104;11.782;2022-11-25T04:34:55;2;2;
48155;PMS5003;35568;48.104;11.782;2022-11-25T04:37:21;3;3;
48155;PMS5003;35568;48.104;11.782;2022-11-25T04:39:48;2;2;
48155;PMS5003;35568;48.104;11.782;2022-11-25T04:42:15;2;2;
48155;PMS5003;35568;48.104;11.782;2022-11-25T04:44:42;6;5;
48155;PMS5003;35568;48.104;11.782;2022-11-25T04:47:09;7;7;
48155;PMS5003;35568;48.104;11.782;2022-11-25T04:49:36;5;5;
48155;PMS5003;35568;48.104;11.782;2022-11-25T04:52:03;2;2;
48155;PMS5003;35568;48.104;11.782;2022-11-25T04:54:30;2;2;
48155;PMS5003;35568;48.104;11.782;2022-11-25T04:56:57;2;2;
48155;PMS5003;35568;48.104;11.782;2022-11-25T04:59:24;2;2;
48155;PMS5003;35568;48.104;11.782;2022-11-25T05:01:51;3;3;
48155;PMS5003;35568;48.104;11.782;2022-11-25T05:04:18;1;1;
48155;PMS5003;35568;48.104;11.782;2022-11-25T05:06:45;3;3;
48155;PMS5003;35568;48.104;11.782;2022-11-25T05:09:12;5;4;
48155;PMS5003;35568;48.104;11.782;2022-11-25T05:11:39;4;3;
48155;PMS5003;35568;48.104;11.782;2022-11-25T05:14:05;1;1;
48155;PMS5003;35568;48.104;11.782;2022-11-25T05:16:32;2;2;
48155;PMS5003;35568;48.104;11.782;2022-11-25T05:18:59;2;2;
48155;PMS5003;35568;48.104;11.782;2022-11-25T05:21:26;3;3;
48155;PMS5003;35568;48.104;11.782;2022-11-25T05:23:53;2;2;
48155;PMS5003;35568;48.104;11.782;2022-11-25T05:26:21;3;3;
48155;PMS5003;35568;48.104;11.782;2022-11-25T05:28:47;5;5;
48155;PMS5003;35568;48.104;11.782;2022-11-25T05:31:14;4;4;
48155;PMS5003;35568;48.104;11.782;2022-11-25T05:33:41;5;3;
48155;PMS5003;35568;48.104;11.782;2022-11-25T05:36:08;1;1;
48155;PMS5003;35568;48.104;11.782;2022-11-25T05:38:35;2;2;
48155;PMS5003;35568;48.104;11.782;2022-11-25T05:41:03;2;2;
48155;PMS5003;35568;48.104;11.782;2022-11-25T05:43:31;2;2;
48155;PMS5003;35568;48.104;11.782;2022-11-25T05:46:03;2;2;
48155;PMS5003;35568;48.104;11.782;2022-11-25T05:48:29;2;2;
48155;PMS5003;35568;48.104;11.782;2022-11-25T05:50:58;2;1;
48155;PMS5003;35568;48.104;11.782;2022-11-25T05:53:25;2;2;
48155;PMS5003;35568;48.104;11.782;2022-11-25T05:55:53;2;2;
48155;PMS5003;35568;48.104;11.782;2022-11-25T05:58:20;2;2;
48155;PMS5003;35568;48.104;11.782;2022-11-25T06:00:47;1;1;
48155;PMS5003;35568;48.104;11.782;2022-11-25T06:03:14;3;3;
48155;PMS5003;35568;48.104;11.782;2022-11-25T06:05:41;3;3;
48155;PMS5003;35568;48.104;11.782;2022-11-25T06:08:08;3;3;
48155;PMS5003;35568;48.104;11.782;2022-11-25T06:10:37;2;2;
48155;PMS5003;35568;48.104;11.782;2022-11-25T06:13:04;2;2;
48155;PMS5003;35568;48.104;11.782;2022-11-25T06:15:30;3;3;
48155;PMS5003;35568;48.104;11.782;2022-11-25T06:17:57;4;4;
48155;PMS5003;35568;48.104;11.782;2022-11-25T06:20:24;4;4;
48155;PMS5003;35568;48.104;11.782;2022-11-25T06:22:51;2;2;
48155;PMS5003;35568;48.104;11.782;2022-11-25T06:25:19;3;3;
48155;PMS5003;35568;48.104;11.782;2022-11-25T06:27:45;2;2;
48155;PMS5003;35568;48.104;11.782;2022-11-25T06:30:13;4;3;
48155;PMS5003;35568;48.104;11.782;2022-11-25T06:32:40;3;3;
48155;PMS5003;35568;48.104;11.782;2022-11-25T06:35:07;2;2;
48155;PMS5003;35568;48.104;11.782;2022-11-25T06:37:35;4;4;
48155;PMS5003;35568;48.104;11.782;2022-11-25T06:40:02;2;2;
48155;PMS5003;35568;48.104;11.782;2022-11-25T06:42:30;3;3;
48155;PMS5003;35568;48.104;11.782;2022-11-25T06:44:58;2;2;
48155;PMS5003;35568;48.104;11.782;2022-11-25T06:47:26;33;32;
48155;PMS5003;35568;48.104;11.782;2022-11-25T06:49:53;69;64;
48155;PMS5003;35568;48.104;11.782;2022-11-25T06:52:20;55;53;
48155;PMS5003;35568;48.104;11.782;2022-11-25T06:54:47;48;44;
48155;PMS5003;35568;48.104;11.782;2022-11-25T06:57:17;27;26;
48155;PMS5003;35568;48.104;11.782;2022-11-25T06:59:45;18;18;
48155;PMS5003;35568;48.104;11.782;2022-11-25T07:02:12;9;9;
48155;PMS5003;35568;48.104;11.782;2022-11-25T07:04:39;41;39;
48155;PMS5003;35568;48.104;11.782;2022-11-25T07:07:06;6;5;
48155;PMS5003;35568;48.104;11.782;2022-11-25T07:09:34;2;2;
48155;PMS5003;35568;48.104;11.782;2022-11-25T07:12:01;3;3;
48155;PMS5003;35568;48.104;11.782;2022-11-25T07:14:29;3;3;
48155;PMS5003;35568;48.104;11.782;2022-11-25T07:16:56;3;2;
48155;PMS5003;35568;48.104;11.782;2022-11-25T07:19:23;4;4;
48155;PMS5003;35568;48.104;11.782;2022-11-25T07:21:49;3;2;
48155;PMS5003;35568;48.104;11.782;2022-11-25T07:24:17;2;2;
48155;PMS5003;35568;48.104;11.782;2022-11-25T07:26:43;2;2;
48155;PMS5003;35568;48.104;11.782;2022-11-25T07:29:12;3;2;
48155;PMS5003;35568;48.104;11.782;2022-11-25T07:31:40;3;3;
48155;PMS5003;35568;48.104;11.782;2022-11-25T07:34:10;4;4;
48155;PMS5003;35568;48.104;11.782;2022-11-25T07:36:39;4;4;
48155;PMS5003;35568;48.104;11.782;2022-11-25T07:39:09;30;30;
48155;PMS5003;35568;48.104;11.782;2022-11-25T07:41:38;77;72;
48155;PMS5003;35568;48.104;11.782;2022-11-25T07:44:05;45;43;
48155;PMS5003;35568;48.104;11.782;2022-11-25T07:46:34;13;12;
48155;PMS5003;35568;48.104;11.782;2022-11-25T07:49:03;12;11;
48155;PMS5003;35568;48.104;11.782;2022-11-25T07:51:32;5;5;
48155;PMS5003;35568;48.104;11.782;2022-11-25T07:54:01;3;3;
48155;PMS5003;35568;48.104;11.782;2022-11-25T07:56:31;2;2;
48155;PMS5003;35568;48.104;11.782;2022-11-25T07:58:59;2;2;
48155;PMS5003;35568;48.104;11.782;2022-11-25T08:01:27;4;4;
48155;PMS5003;35568;48.104;11.782;2022-11-25T08:03:54;4;4;
48155;PMS5003;35568;48.104;11.782;2022-11-25T08:06:22;5;5;
48155;PMS5003;35568;48.104;11.782;2022-11-25T08:08:50;5;4;
48155;PMS5003;35568;48.104;11.782;2022-11-25T08:11:19;4;4;
48155;PMS5003;35568;48.104;11.782;2022-11-25T08:13:48;4;3;
48155;PMS5003;35568;48.104;11.782;2022-11-25T08:16:16;4;4;
48155;PMS5003;35568;48.104;11.782;2022-11-25T08:18:44;7;7;
48155;PMS5003;35568;48.104;11.782;2022-11-25T08:21:12;4;4;
48155;PMS5003;35568;48.104;11.782;2022-11-25T08:23:42;5;5;
48155;PMS5003;35568;48.104;11.782;2022-11-25T08:26:11;6;6;
48155;PMS5003;35568;48.104;11.782;2022-11-25T08:28:40;7;7;
48155;PMS5003;35568;48.104;11.782;2022-11-25T08:31:08;5;5;
48155;PMS5003;35568;48.104;11.782;2022-11-25T08:33:37;5;4;
48155;PMS5003;35568;48.104;11.782;2022-11-25T08:36:05;7;6;
48155;PMS5003;35568;48.104;11.782;2022-11-25T08:38:33;7;5;
48155;PMS5003;35568;48.104;11.782;2022-11-25T08:41:00;6;6;
48155;PMS5003;35568;48.104;11.782;2022-11-25T08:43:27;8;8;
48155;PMS5003;35568;48.104;11.782;2022-11-25T08:45:54;5;5;
48155;PMS5003;35568;48.104;11.782;2022-11-25T08:48:22;4;4;
48155;PMS5003;35568;48.104;11.782;2022-11-25T08:50:49;4;4;
48155;PMS5003;35568;48.104;11.782;2022-11-25T08:53:19;5;4;
48155;PMS5003;35568;48.104;11.782;2022-11-25T08:55:47;3;3;
48155;PMS5003;35568;48.104;11.782;2022-11-25T08:58:14;4;3;
48155;PMS5003;35568;48.104;11.782;2022-11-25T09:00:41;2;2;
48155;PMS5003;35568;48.104;11.782;2022-11-25T09:03:09;3;3;
48155;PMS5003;35568;48.104;11.782;2022-11-25T09:05:37;5;5;
48155;PMS5003;35568;48.104;11.782;2022-11-25T09:08:06;4;4;
48155;PMS5003;35568;48.104;11.782;2022-11-25T09:10:34;13;13;
48155;PMS5003;35568;48.104;11.782;2022-11-25T09:13:03;24;22;
48155;PMS5003;35568;48.104;11.782;2022-11-25T09:15:30;11;10;
48155;PMS5003;35568;48.104;11.782;2022-11-25T09:17:58;8;8;
48155;PMS5003;35568;48.104;11.782;2022-11-25T09:20:26;5;4;
48155;PMS5003;35568;48.104;11.782;2022-11-25T09:22:53;4;4;
48155;PMS5003;35568;48.104;11.782;2022-11-25T09:25:20;2;2;
48155;PMS5003;35568;48.104;11.782;2022-11-25T09:27:48;4;3;
48155;PMS5003;35568;48.104;11.782;2022-11-25T09:30:15;4;4;
48155;PMS5003;35568;48.104;11.782;2022-11-25T09:32:42;2;2;
48155;PMS5003;35568;48.104;11.782;2022-11-25T09:35:08;2;2;
48155;PMS5003;35568;48.104;11.782;2022-11-25T09:37:36;3;3;
48155;PMS5003;35568;48.104;11.782;2022-11-25T09:40:04;2;2;
48155;PMS5003;35568;48.104;11.782;2022-11-25T09:42:38;4;3;
48155;PMS5003;35568;48.104;11.782;2022-11-25T09:45:15;3;3;
48155;PMS5003;35568;48.104;11.782;2022-11-25T09:47:48;4;3;
48155;PMS5003;35568;48.104;11.782;2022-11-25T09:50:27;3;3;
48155;PMS5003;35568;48.104;11.782;2022-11-25T09:53:08;4;4;
48155;PMS5003;35568;48.104;11.782;2022-11-25T09:55:43;4;4;
48155;PMS5003;35568;48.104;11.782;2022-11-25T09:58:15;3;3;
48155;PMS5003;35568;48.104;11.782;2022-11-25T10:00:50;3;3;
48155;PMS5003;35568;48.104;11.782;2022-11-25T10:03:22;5;4;
48155;PMS5003;35568;48.104;11.782;2022-11-25T10:05:58;2;2;
48155;PMS5003;35568;48.104;11.782;2022-11-25T10:08:30;3;3;
48155;PMS5003;35568;48.104;11.782;2022-11-25T10:11:06;4;3;
48155;PMS5003;35568;48.104;11.782;2022-11-25T10:13:45;5;4;
48155;PMS5003;35568;48.104;11.782;2022-11-25T10:16:26;5;5;
48155;PMS5003;35568;48.104;11.782;2022-11-25T10:19:00;3;3;
48155;PMS5003;35568;48.104;11.782;2022-11-25T10:21:32;5;5;
48155;PMS5003;35568;48.104;11.782;2022-11-25T10:23:59;26;25;
48155;PMS5003;35568;48.104;11.782;2022-11-25T10:26:29;24;23;
48155;PMS5003;35568;48.104;11.782;2022-11-25T10:29:24;20;19;
48155;PMS5003;35568;48.104;11.782;2022-11-25T10:31:55;7;7;
48155;PMS5003;35568;48.104;11.782;2022-11-25T10:34:43;17;17;
48155;PMS5003;35568;48.104;11.782;2022-11-25T10:37:20;12;12;
48155;PMS5003;35568;48.104;11.782;2022-11-25T10:39:52;9;9;
48155;PMS5003;35568;48.104;11.782;2022-11-25T10:42:20;19;18;
48155;PMS5003;35568;48.104;11.782;2022-11-25T10:44:48;10;10;
48155;PMS5003;35568;48.104;11.782;2022-11-25T10:47:19;9;9;
48155;PMS5003;35568;48.104;11.782;2022-11-25T10:49:59;5;5;
48155;PMS5003;35568;48.104;11.782;2022-11-25T10:52:38;6;6;
48155;PMS5003;35568;48.104;11.782;2022-11-25T10:55:11;4;4;
48155;PMS5003;35568;48.104;11.782;2022-11-25T10:57:41;4;4;
48155;PMS5003;35568;48.104;11.782;2022-11-25T11:00:23;4;4;
48155;PMS5003;35568;48.104;11.782;2022-11-25T11:02:52;3;3;
48155;PMS5003;35568;48.104;11.782;2022-11-25T11:05:21;9;9;
48155;PMS5003;35568;48.104;11.782;2022-11-25T11:08:05;7;7;
48155;PMS5003;35568;48.104;11.782;2022-11-25T11:10:35;5;4;
48155;PMS5003;35568;48.104;11.782;2022-11-25T11:13:03;3;3;
48155;PMS5003;35568;48.104;11.782;2022-11-25T11:15:32;7;7;
48155;PMS5003;35568;48.104;11.782;2022-11-25T11:18:19;6;5;
48155;PMS5003;35568;48.104;11.782;2022-11-25T11:20:51;3;3;
48155;PMS5003;35568;48.104;11.782;2022-11-25T11:23:19;5;5;
48155;PMS5003;35568;48.104;11.782;2022-11-25T11:25:56;8;7;
48155;PMS5003;35568;48.104;11.782;2022-11-25T11:28:27;2;2;
48155;PMS5003;35568;48.104;11.782;2022-11-25T11:30:57;2;2;
48155;PMS5003;35568;48.104;11.782;2022-11-25T11:33:29;2;2;
48155;PMS5003;35568;48.104;11.782;2022-11-25T11:36:05;3;3;
48155;PMS5003;35568;48.104;11.782;2022-11-25T11:38:42;2;1;
48155;PMS5003;35568;48.104;11.782;2022-11-25T11:41:19;3;3;
48155;PMS5003;35568;48.104;11.782;2022-11-25T11:43:57;2;2;
48155;PMS5003;35568;48.104;11.782;2022-11-25T11:46:39;2;2;
48155;PMS5003;35568;48.104;11.782;2022-11-25T11:49:21;1;1;
48155;PMS5003;35568;48.104;11.782;2022-11-25T11:52:01;3;3;
48155;PMS5003;35568;48.104;11.782;2022-11-25T11:54:38;4;4;
48155;PMS5003;35568;48.104;11.782;2022-11-25T11:57:13;2;2;
48155;PMS5003;35568;48.104;11.782;2022-11-25T11:59:51;5;5;
48155;PMS5003;35568;48.104;11.782;2022-11-25T12:02:23;6;6;
48155;PMS5003;35568;48.104;11.782;2022-11-25T12:05:00;5;5;
48155;PMS5003;35568;48.104;11.782;2022-11-25T12:07:39;8;8;
48155;PMS5003;35568;48.104;11.782;2022-11-25T12:10:19;6;6;
48155;PMS5003;35568;48.104;11.782;2022-11-25T12:12:52;8;7;
48155;PMS5003;35568;48.104;11.782;2022-11-25T12:15:29;3;3;
48155;PMS5003;35568;48.104;11.782;2022-11-25T12:18:04;5;5;
48155;PMS5003;35568;48.104;11.782;2022-11-25T12:20:42;3;3;
48155;PMS5003;35568;48.104;11.782;2022-11-25T12:23:17;4;2;
48155;PMS5003;35568;48.104;11.782;2022-11-25T12:25:53;4;4;
48155;PMS5003;35568;48.104;11.782;2022-11-25T12:28:28;3;2;
48155;PMS5003;35568;48.104;11.782;2022-11-25T12:31:01;3;3;
48155;PMS5003;35568;48.104;11.782;2022-11-25T12:33:40;2;2;
48155;PMS5003;35568;48.104;11.782;2022-11-25T12:36:12;1;1;
48155;PMS5003;35568;48.104;11.782;2022-11-25T12:38:45;2;2;
48155;PMS5003;35568;48.104;11.782;2022-11-25T12:41:26;2;2;
48155;PMS5003;35568;48.104;11.782;2022-11-25T12:44:02;2;2;
48155;PMS5003;35568;48.104;11.782;2022-11-25T12:46:34;1;1;
48155;PMS5003;35568;48.104;11.782;2022-11-25T12:49:06;1;1;
48155;PMS5003;35568;48.104;11.782;2022-11-25T12:51:45;0;0;
48155;PMS5003;35568;48.104;11.782;2022-11-25T12:54:30;0;0;
48155;PMS5003;35568;48.104;11.782;2022-11-25T12:57:18;0;0;
48155;PMS5003;35568;48.104;11.782;2022-11-25T13:00:01;1;1;
48155;PMS5003;35568;48.104;11.782;2022-11-25T13:02:42;2;1;
48155;PMS5003;35568;48.104;11.782;2022-11-25T13:05:26;1;1;
48155;PMS5003;35568;48.104;11.782;2022-11-25T13:08:14;1;1;
48155;PMS5003;35568;48.104;11.782;2022-11-25T13:10:58;0;0;
48155;PMS5003;35568;48.104;11.782;2022-11-25T13:13:36;1;1;
48155;PMS5003;35568;48.104;11.782;2022-11-25T13:16:13;0;0;
48155;PMS5003;35568;48.104;11.782;2022-11-25T13:18:41;1;1;
48155;PMS5003;35568;48.104;11.782;2022-11-25T13:21:09;0;0;
48155;PMS5003;35568;48.104;11.782;2022-11-25T13:23:46;0;0;
48155;PMS5003;35568;48.104;11.782;2022-11-25T13:26:33;1;1;
48155;PMS5003;35568;48.104;11.782;2022-11-25T13:32:34;1;1;
48155;PMS5003;35568;48.104;11.782;2022-11-25T13:35:28;1;1;
48155;PMS5003;35568;48.104;11.782;2022-11-25T13:37:57;0;0;
48155;PMS5003;35568;48.104;11.782;2022-11-25T13:40:33;1;0;
48155;PMS5003;35568;48.104;11.782;2022-11-25T13:43:03;1;1;
48155;PMS5003;35568;48.104;11.782;2022-11-25T13:45:45;1;1;
48155;PMS5003;35568;48.104;11.782;2022-11-25T13:48:14;1;1;
48155;PMS5003;35568;48.104;11.782;2022-11-25T13:50:44;0;0;
48155;PMS5003;35568;48.104;11.782;2022-11-25T13:53:21;2;2;
48155;PMS5003;35568;48.104;11.782;2022-11-25T13:55:51;3;3;
48155;PMS5003;35568;48.104;11.782;2022-11-25T13:58:19;4;4;
48155;PMS5003;35568;48.104;11.782;2022-11-25T14:00:51;3;3;
48155;PMS5003;35568;48.104;11.782;2022-11-25T14:03:40;3;3;
48155;PMS5003;35568;48.104;11.782;2022-11-25T14:06:13;1;1;
48155;PMS5003;35568;48.104;11.782;2022-11-25T14:08:53;2;2;
48155;PMS5003;35568;48.104;11.782;2022-11-25T14:11:31;1;1;
48155;PMS5003;35568;48.104;11.782;2022-11-25T14:14:19;1;1;
48155;PMS5003;35568;48.104;11.782;2022-11-25T14:17:03;4;4;
48155;PMS5003;35568;48.104;11.782;2022-11-25T14:19:55;2;2;
48155;PMS5003;35568;48.104;11.782;2022-11-25T14:22:33;2;2;
48155;PMS5003;35568;48.104;11.782;2022-11-25T14:25:26;3;3;
48155;PMS5003;35568;48.104;11.782;2022-11-25T14:27:56;2;2;
48155;PMS5003;35568;48.104;11.782;2022-11-25T14:30:35;3;3;
48155;PMS5003;35568;48.104;11.782;2022-11-25T14:33:11;4;4;
48155;PMS5003;35568;48.104;11.782;2022-11-25T14:35:45;2;2;
48155;PMS5003;35568;48.104;11.782;2022-11-25T14:38:17;2;2;
48155;PMS5003;35568;48.104;11.782;2022-11-25T14:40:50;9;8;
48155;PMS5003;35568;48.104;11.782;2022-11-25T14:43:23;19;19;
48155;PMS5003;35568;48.104;11.782;2022-11-25T14:46:08;19;17;
48155;PMS5003;35568;48.104;11.782;2022-11-25T14:48:36;15;14;
48155;PMS5003;35568;48.104;11.782;2022-11-25T14:51:04;17;16;
48155;PMS5003;35568;48.104;11.782;2022-11-25T14:53:37;16;15;
48155;PMS5003;35568;48.104;11.782;2022-11-25T14:56:06;15;15;
48155;PMS5003;35568;48.104;11.782;2022-11-25T14:58:38;10;10;
48155;PMS5003;35568;48.104;11.782;2022-11-25T15:01:07;8;7;
48155;PMS5003;35568;48.104;11.782;2022-11-25T15:03:45;6;6;
48155;PMS5003;35568;48.104;11.782;2022-11-25T15:06:12;7;6;
48155;PMS5003;35568;48.104;11.782;2022-11-25T15:08:41;6;5;
48155;PMS5003;35568;48.104;11.782;2022-11-25T15:11:11;5;5;
48155;PMS5003;35568;48.104;11.782;2022-11-25T15:13:43;1;1;
48155;PMS5003;35568;48.104;11.782;2022-11-25T15:16:12;3;3;
48155;PMS5003;35568;48.104;11.782;2022-11-25T15:18:44;1;1;
48155;PMS5003;35568;48.104;11.782;2022-11-25T15:21:15;2;2;
48155;PMS5003;35568;48.104;11.782;2022-11-25T15:23:46;2;2;
48155;PMS5003;35568;48.104;11.782;2022-11-25T15:26:15;3;2;
48155;PMS5003;35568;48.104;11.782;2022-11-25T15:28:45;2;2;
48155;PMS5003;35568;48.104;11.782;2022-11-25T15:31:16;4;3;
48155;PMS5003;35568;48.104;11.782;2022-11-25T15:33:44;3;3;
48155;PMS5003;35568;48.104;11.782;2022-11-25T15:36:12;2;2;
48155;PMS5003;35568;48.104;11.782;2022-11-25T15:38:40;2;2;
48155;PMS5003;35568;48.104;11.782;2022-11-25T15:41:27;2;2;
48155;PMS5003;35568;48.104;11.782;2022-11-25T15:43:59;3;3;
48155;PMS5003;35568;48.104;11.782;2022-11-25T15:46:28;1;1;
48155;PMS5003;35568;48.104;11.782;2022-11-25T15:48:58;1;1;
48155;PMS5003;35568;48.104;11.782;2022-11-25T15:51:30;3;3;
48155;PMS5003;35568;48.104;11.782;2022-11-25T15:54:03;4;3;
48155;PMS5003;35568;48.104;11.782;2022-11-25T15:56:34;3;3;
48155;PMS5003;35568;48.104;11.782;2022-11-25T15:59:34;4;4;
48155;PMS5003;35568;48.104;11.782;2022-11-25T16:04:18;3;2;
48155;PMS5003;35568;48.104;11.782;2022-11-25T16:06:54;7;7;
48155;PMS5003;35568;48.104;11.782;2022-11-25T16:09:23;8;8;
48155;PMS5003;35568;48.104;11.782;2022-11-25T16:11:50;8;8;
48155;PMS5003;35568;48.104;11.782;2022-11-25T16:14:21;9;8;
48155;PMS5003;35568;48.104;11.782;2022-11-25T16:16:50;7;6;
48155;PMS5003;35568;48.104;11.782;2022-11-25T16:19:19;9;9;
48155;PMS5003;35568;48.104;11.782;2022-11-25T16:21:55;6;6;
48155;PMS5003;35568;48.104;11.782;2022-11-25T16:24:28;7;7;
48155;PMS5003;35568;48.104;11.782;2022-11-25T16:26:59;6;6;
48155;PMS5003;35568;48.104;11.782;2022-11-25T16:29:29;4;4;
48155;PMS5003;35568;48.104;11.782;2022-11-25T16:31:58;6;6;
48155;PMS5003;35568;48.104;11.782;2022-11-25T16:34:25;7;7;
48155;PMS5003;35568;48.104;11.782;2022-11-25T16:36:52;6;5;
48155;PMS5003;35568;48.104;11.782;2022-11-25T16:39:20;3;3;
48155;PMS5003;35568;48.104;11.782;2022-11-25T16:41:52;3;3;
48155;PMS5003;35568;48.104;11.782;2022-11-25T16:44:22;4;4;
48155;PMS5003;35568;48.104;11.782;2022-11-25T16:46:50;6;5;
48155;PMS5003;35568;48.104;11.782;2022-11-25T16:49:18;11;10;
48155;PMS5003;35568;48.104;11.782;2022-11-25T16:51:46;7;7;
48155;PMS5003;35568;48.104;11.782;2022-11-25T16:54:13;7;7;
48155;PMS5003;35568;48.104;11.782;2022-11-25T16:56:40;6;6;
48155;PMS5003;35568;48.104;11.782;2022-11-25T16:59:11;8;8;
48155;PMS5003;35568;48.104;11.782;2022-11-25T17:01:41;5;5;